createdAt,value
2022-11-22T00:00:15.917Z,98842.38
2022-11-22T00:02:42.968Z,98842.31
2022-11-22T00:05:09.803Z,98842.31
2022-11-22T00:07:38.232Z,98846.59
2022-11-22T00:10:07.067Z,98857.03
2022-11-22T00:12:33.944Z,98859.69
2022-11-22T00:15:00.516Z,98859.72
2022-11-22T00:17:27.207Z,98861.44
2022-11-22T00:19:54.032Z,98848.41
2022-11-22T00:22:20.834Z,98840.59
2022-11-22T00:24:47.612Z,98837.09
2022-11-22T00:27:14.484Z,98841.47
2022-11-22T00:29:40.999Z,98843.25
2022-11-22T00:32:07.882Z,98845.91
2022-11-22T00:34:34.659Z,98840.69
2022-11-22T00:37:01.583Z,98843.31
2022-11-22T00:39:28.318Z,98845.94
2022-11-22T00:41:55.562Z,98841.63
2022-11-22T00:44:22.291Z,98842.47
2022-11-22T00:46:48.893Z,98840.78
2022-11-22T00:49:15.848Z,98840.78
2022-11-22T00:51:42.598Z,98844.34
2022-11-22T00:54:10.227Z,98846.13
2022-11-22T00:56:36.955Z,98853.09
2022-11-22T00:59:03.614Z,98858.38
2022-11-22T01:01:30.376Z,98854.09
2022-11-22T01:03:57.011Z,98841.09
2022-11-22T01:06:23.582Z,98835.00
2022-11-22T01:08:50.142Z,98841.06
2022-11-22T01:11:19.022Z,98835.00
2022-11-22T01:13:46.055Z,98836.78
2022-11-22T01:16:13.617Z,98829.81
2022-11-22T01:18:40.579Z,98820.28
2022-11-22T01:21:07.546Z,98814.19
2022-11-22T01:23:34.732Z,98812.44
2022-11-22T01:26:02.124Z,98812.41
2022-11-22T01:28:29.058Z,98817.66
2022-11-22T01:30:55.931Z,98809.84
2022-11-22T01:33:22.653Z,98796.00
2022-11-22T01:35:49.271Z,98796.00
2022-11-22T01:38:16.003Z,98794.22
2022-11-22T01:40:43.201Z,98782.97
2022-11-22T01:43:17.128Z,98785.56
2022-11-22T01:45:50.496Z,98780.25
2022-11-22T01:48:35.822Z,98771.50
2022-11-22T01:51:09.244Z,98771.47
2022-11-22T01:53:39.053Z,98764.47
2022-11-22T01:56:10.218Z,98767.09
2022-11-22T01:58:40.356Z,98761.88
2022-11-22T02:01:07.754Z,98753.22
2022-11-22T02:03:36.375Z,98738.41
2022-11-22T02:06:03.534Z,98741.03
2022-11-22T02:08:37.835Z,98747.13
2022-11-22T02:11:05.598Z,98743.72
2022-11-22T02:13:36.643Z,98735.97
2022-11-22T02:16:04.183Z,98729.06
2022-11-22T02:18:31.072Z,98717.72
2022-11-22T02:20:58.554Z,98719.41
2022-11-22T02:23:50.353Z,98717.69
2022-11-22T02:26:17.169Z,98717.69
2022-11-22T02:28:44.359Z,98719.41
2022-11-22T02:31:48.968Z,98721.19
2022-11-22T02:34:15.713Z,98729.91
2022-11-22T02:36:54.735Z,98717.72
2022-11-22T02:39:27.754Z,98719.50
2022-11-22T02:41:56.894Z,98719.53
2022-11-22T02:44:24.765Z,98719.53
2022-11-22T02:46:54.012Z,98723.06
2022-11-22T02:49:22.889Z,98723.97
2022-11-22T02:51:50.759Z,98717.88
2022-11-22T02:54:17.710Z,98710.94
2022-11-22T02:56:44.621Z,98708.34
2022-11-22T02:59:11.366Z,98712.66
2022-11-22T03:01:38.166Z,98704.88
2022-11-22T03:04:05.421Z,98728.38
2022-11-22T03:06:32.007Z,98737.97
2022-11-22T03:08:58.613Z,98735.44
2022-11-22T03:11:25.395Z,98731.16
2022-11-22T03:13:52.108Z,98718.16
2022-11-22T03:16:18.951Z,98714.72
2022-11-22T03:18:45.693Z,98719.97
2022-11-22T03:21:12.334Z,98721.69
2022-11-22T03:23:39.053Z,98724.31
2022-11-22T03:26:11.052Z,98728.69
2022-11-22T03:28:37.743Z,98730.47
2022-11-22T03:31:06.478Z,98736.56
2022-11-22T03:33:34.625Z,98730.53
2022-11-22T03:36:02.087Z,98737.50
2022-11-22T03:38:28.935Z,98723.63
2022-11-22T03:40:55.947Z,98734.13
2022-11-22T03:43:23.596Z,98736.81
2022-11-22T03:45:50.289Z,98725.53
2022-11-22T03:48:17.535Z,98723.81
2022-11-22T03:50:44.862Z,98723.03
2022-11-22T03:53:12.251Z,98715.28
2022-11-22T03:55:39.495Z,98711.81
2022-11-22T03:58:06.672Z,98698.78
2022-11-22T04:00:34.992Z,98684.03
2022-11-22T04:03:02.389Z,98668.38
2022-11-22T04:05:28.915Z,98679.69
2022-11-22T04:07:58.836Z,98687.56
2022-11-22T04:10:26.264Z,98695.38
2022-11-22T04:12:57.450Z,98699.72
2022-11-22T04:15:24.439Z,98693.63
2022-11-22T04:17:51.076Z,98694.50
2022-11-22T04:20:41.619Z,98684.97
2022-11-22T04:23:09.850Z,98685.91
2022-11-22T04:25:39.083Z,98688.56
2022-11-22T04:28:07.595Z,98685.09
2022-11-22T04:30:53.353Z,98686.91
2022-11-22T04:33:20.973Z,98689.53
2022-11-22T04:35:48.579Z,98689.53
2022-11-22T04:38:17.276Z,98686.06
2022-11-22T04:40:44.000Z,98687.81
2022-11-22T04:43:37.652Z,98686.09
2022-11-22T04:46:04.463Z,98680.91
2022-11-22T04:48:31.099Z,98690.53
2022-11-22T04:51:16.117Z,98674.88
2022-11-22T04:53:44.506Z,98673.19
2022-11-22T04:56:11.711Z,98687.13
2022-11-22T04:58:38.672Z,98688.91
2022-11-22T05:01:05.423Z,98691.53
2022-11-22T05:03:32.305Z,98690.72
2022-11-22T05:06:02.819Z,98693.34
2022-11-22T05:08:29.879Z,98704.69
2022-11-22T05:10:56.750Z,98703.84
2022-11-22T05:13:29.956Z,98705.63
2022-11-22T05:15:57.600Z,98709.16
2022-11-22T05:18:25.684Z,98704.84
2022-11-22T05:20:53.006Z,98705.72
2022-11-22T05:23:39.929Z,98706.59
2022-11-22T05:26:07.150Z,98707.47
2022-11-22T05:28:36.704Z,98716.19
2022-11-22T05:31:08.675Z,98710.97
2022-11-22T05:33:39.962Z,98707.47
2022-11-22T05:36:07.152Z,98707.47
2022-11-22T05:38:40.743Z,98708.34
2022-11-22T05:41:10.024Z,98708.38
2022-11-22T05:43:37.691Z,98716.22
2022-11-22T05:46:13.059Z,98709.28
2022-11-22T05:48:41.924Z,98706.66
2022-11-22T05:51:11.329Z,98703.22
2022-11-22T05:53:39.013Z,98711.91
2022-11-22T05:56:24.439Z,98710.22
2022-11-22T05:58:51.683Z,98711.97
2022-11-22T06:01:22.915Z,98711.97
2022-11-22T06:03:50.612Z,98713.72
2022-11-22T06:06:17.314Z,98715.50
2022-11-22T06:08:48.489Z,98718.13
2022-11-22T06:11:26.640Z,98716.44
2022-11-22T06:13:59.137Z,98714.72
2022-11-22T06:16:26.803Z,98713.03
2022-11-22T06:18:54.351Z,98711.31
2022-11-22T06:21:23.692Z,98709.59
2022-11-22T06:23:54.589Z,98714.00
2022-11-22T06:26:22.919Z,98714.00
2022-11-22T06:28:49.946Z,98708.78
2022-11-22T06:31:21.907Z,98708.78
2022-11-22T06:33:48.588Z,98718.34
2022-11-22T06:36:16.467Z,98726.25
2022-11-22T06:38:44.334Z,98723.63
2022-11-22T06:41:13.357Z,98728.88
2022-11-22T06:43:48.030Z,98737.66
2022-11-22T06:46:17.570Z,98729.84
2022-11-22T06:48:44.345Z,98741.25
2022-11-22T06:51:14.079Z,98743.94
2022-11-22T06:53:49.210Z,98749.16
2022-11-22T06:56:20.096Z,98750.06
2022-11-22T06:58:48.485Z,98742.25
2022-11-22T07:01:35.999Z,98754.50
2022-11-22T07:04:03.814Z,98761.47
2022-11-22T07:06:33.338Z,98769.31
2022-11-22T07:09:01.400Z,98764.97
2022-11-22T07:11:30.168Z,98762.34
2022-11-22T07:14:03.537Z,98767.59
2022-11-22T07:16:34.277Z,98762.41
2022-11-22T07:19:00.957Z,98762.44
2022-11-22T07:21:27.992Z,98760.66
2022-11-22T07:23:55.956Z,98766.84
2022-11-22T07:26:25.736Z,98757.28
2022-11-22T07:28:52.943Z,98763.41
2022-11-22T07:31:19.999Z,98759.03
2022-11-22T07:33:46.666Z,98764.31
2022-11-22T07:36:19.152Z,98760.81
2022-11-22T07:38:48.010Z,98767.78
2022-11-22T07:41:15.445Z,98769.59
2022-11-22T07:43:42.453Z,98773.19
2022-11-22T07:46:21.707Z,98773.31
2022-11-22T07:48:49.802Z,98772.47
2022-11-22T07:51:16.985Z,98777.72
2022-11-22T07:53:43.643Z,98784.75
2022-11-22T07:56:10.283Z,98786.50
2022-11-22T07:58:37.725Z,98790.88
2022-11-22T08:01:09.177Z,98784.75
2022-11-22T08:03:36.848Z,98790.00
2022-11-22T08:06:05.254Z,98788.28
2022-11-22T08:08:32.097Z,98783.91
2022-11-22T08:10:59.010Z,98785.66
2022-11-22T08:13:25.909Z,98785.66
2022-11-22T08:15:54.717Z,98783.94
2022-11-22T08:18:22.755Z,98783.97
2022-11-22T08:20:49.297Z,98790.97
2022-11-22T08:23:15.906Z,98786.63
2022-11-22T08:25:42.598Z,98793.63
2022-11-22T08:28:09.153Z,98790.13
2022-11-22T08:30:35.706Z,98798.00
2022-11-22T08:33:02.378Z,98806.75
2022-11-22T08:35:29.015Z,98806.78
2022-11-22T08:37:58.924Z,98815.56
2022-11-22T08:40:25.533Z,98815.56
2022-11-22T08:42:56.585Z,98823.47
2022-11-22T08:45:23.536Z,98823.47
2022-11-22T08:47:50.441Z,98834.84
2022-11-22T08:50:18.288Z,98831.34
2022-11-22T08:52:44.849Z,98825.25
2022-11-22T08:55:11.451Z,98833.13
2022-11-22T08:57:38.104Z,98838.41
2022-11-22T09:00:06.417Z,98838.44
2022-11-22T09:02:33.010Z,98843.72
2022-11-22T09:04:59.613Z,98843.72
2022-11-22T09:10:14.190Z,98861.28
2022-11-22T09:12:44.538Z,98859.56
2022-11-22T09:15:11.204Z,98867.47
2022-11-22T09:17:37.727Z,98864.84
2022-11-22T09:20:05.323Z,98862.28
2022-11-22T09:22:32.390Z,98859.69
2022-11-22T09:24:58.996Z,98867.56
2022-11-22T09:27:25.706Z,98869.38
2022-11-22T09:29:52.397Z,98869.41
2022-11-22T09:32:18.911Z,98867.69
2022-11-22T09:34:45.614Z,98868.56
2022-11-22T09:37:12.747Z,98867.72
2022-11-22T09:39:42.591Z,98877.38
2022-11-22T09:42:22.300Z,98879.16
2022-11-22T09:45:16.449Z,98882.66
2022-11-22T09:47:55.876Z,98884.47
2022-11-22T09:50:50.384Z,98879.22
2022-11-22T09:53:24.946Z,98873.09
2022-11-22T09:55:56.230Z,98879.22
2022-11-22T09:58:29.377Z,98877.47
2022-11-22T10:01:03.047Z,98874.88
2022-11-22T10:03:53.038Z,98879.25
2022-11-22T10:06:27.481Z,98885.38
2022-11-22T10:09:22.051Z,98881.03
2022-11-22T10:11:58.327Z,98878.38
2022-11-22T10:15:03.035Z,98874.00
2022-11-22T10:17:47.980Z,98881.00
2022-11-22T10:20:23.570Z,98872.25
2022-11-22T10:22:51.022Z,98874.88
2022-11-22T10:25:26.630Z,98882.75
2022-11-22T10:28:01.860Z,98883.63
2022-11-22T10:30:36.558Z,98872.22
2022-11-22T10:33:21.752Z,98881.03
2022-11-22T10:36:14.707Z,98876.63
2022-11-22T10:39:02.762Z,98876.63
2022-11-22T10:41:50.100Z,98876.59
2022-11-22T10:44:47.937Z,98877.50
2022-11-22T10:47:41.845Z,98876.63
2022-11-22T10:50:23.789Z,98873.09
2022-11-22T10:52:50.704Z,98868.72
2022-11-22T10:55:26.119Z,98863.44
2022-11-22T10:58:01.505Z,98864.34
2022-11-22T11:00:31.808Z,98863.47
2022-11-22T11:03:37.466Z,98858.22
2022-11-22T11:06:38.046Z,98857.34
2022-11-22T11:11:54.817Z,98838.91
2022-11-22T11:14:30.391Z,98838.03
2022-11-22T11:16:59.433Z,98835.44
2022-11-22T11:19:30.795Z,98828.38
2022-11-22T11:22:01.993Z,98821.38
2022-11-22T11:24:31.209Z,98831.88
2022-11-22T11:27:00.517Z,98830.97
2022-11-22T11:29:53.085Z,98833.63
2022-11-22T11:32:21.267Z,98830.97
2022-11-22T11:34:56.109Z,98832.72
2022-11-22T11:37:35.369Z,98836.22
2022-11-22T11:40:06.147Z,98834.47
2022-11-22T11:42:35.269Z,98834.47
2022-11-22T11:45:33.921Z,98831.81
2022-11-22T11:48:00.687Z,98820.41
2022-11-22T11:50:30.138Z,98823.00
2022-11-22T11:53:06.004Z,98826.50
2022-11-22T11:55:36.496Z,98819.47
2022-11-22T11:58:17.617Z,98830.88
2022-11-22T12:00:45.426Z,98827.38
2022-11-22T12:03:16.608Z,98827.38
2022-11-22T12:05:43.387Z,98835.28
2022-11-22T12:08:36.708Z,98844.06
2022-11-22T12:11:10.049Z,98851.06
2022-11-22T12:14:12.330Z,98855.44
2022-11-22T12:16:40.115Z,98858.94
2022-11-22T12:19:14.585Z,98854.59
2022-11-22T12:22:09.302Z,98847.56
2022-11-22T12:25:16.542Z,98862.50
2022-11-22T12:27:34.916Z,98864.25
2022-11-22T12:30:01.854Z,98861.63
2022-11-22T12:32:39.974Z,98860.75
2022-11-22T12:35:18.090Z,98852.84
2022-11-22T12:38:11.432Z,98853.75
2022-11-22T12:40:38.356Z,98844.06
2022-11-22T12:43:15.780Z,98858.13
2022-11-22T12:46:08.910Z,98851.97
2022-11-22T12:49:07.220Z,98851.13
2022-11-22T12:51:50.035Z,98851.09
2022-11-22T12:54:25.614Z,98851.13
2022-11-22T12:56:57.792Z,98845.84
2022-11-22T12:59:38.777Z,98844.97
2022-11-22T13:02:12.796Z,98837.94
2022-11-22T13:04:58.985Z,98837.94
2022-11-22T13:07:32.123Z,98835.31
2022-11-22T13:10:09.101Z,98851.09
2022-11-22T13:12:39.310Z,98844.97
2022-11-22T13:15:06.830Z,98853.75
2022-11-22T13:17:36.235Z,98849.38
2022-11-22T13:20:03.410Z,98840.59
2022-11-22T13:22:34.670Z,98843.22
2022-11-22T13:25:32.632Z,98844.97
2022-11-22T13:28:02.768Z,98846.72
2022-11-22T13:30:31.045Z,98848.50
2022-11-22T13:33:02.247Z,98847.66
2022-11-22T13:35:38.936Z,98857.28
2022-11-22T13:38:19.290Z,98849.41
2022-11-22T13:40:47.730Z,98850.31
2022-11-22T13:43:21.227Z,98850.31
2022-11-22T13:45:55.405Z,98852.06
2022-11-22T13:48:40.739Z,98851.22
2022-11-22T13:51:13.483Z,98843.31
2022-11-22T13:53:46.168Z,98852.09
2022-11-22T13:56:15.892Z,98848.56
2022-11-22T13:58:51.001Z,98851.22
2022-11-22T14:01:33.649Z,98852.94
2022-11-22T14:04:15.820Z,98845.06
2022-11-22T14:07:00.812Z,98841.59
2022-11-22T14:09:36.944Z,98837.19
2022-11-22T14:12:29.623Z,98838.06
2022-11-22T14:15:19.541Z,98836.31
2022-11-22T14:18:04.772Z,98840.72
2022-11-22T14:21:02.957Z,98838.97
2022-11-22T14:23:57.197Z,98828.47
2022-11-22T14:26:51.504Z,98829.34
2022-11-22T14:29:53.545Z,98838.94
2022-11-22T14:32:23.339Z,98837.19
2022-11-22T14:35:18.088Z,98831.97
2022-11-22T14:38:01.957Z,98836.31
2022-11-22T14:40:39.703Z,98830.19
2022-11-22T14:43:29.858Z,98826.66
2022-11-22T14:46:02.404Z,98835.41
2022-11-22T14:48:44.993Z,98842.38
2022-11-22T14:51:32.493Z,98839.75
2022-11-22T14:54:21.584Z,98849.34
2022-11-22T14:56:49.457Z,98851.09
2022-11-22T14:59:45.408Z,98855.44
2022-11-22T15:02:33.658Z,98844.91
2022-11-22T15:09:14.914Z,98855.38
2022-11-22T15:09:21.961Z,98858.81
2022-11-22T15:11:34.958Z,98864.91
2022-11-22T15:14:20.415Z,98868.38
2022-11-22T15:57:37.621Z,98919.72
2022-11-22T16:00:20.819Z,98927.66
2022-11-22T16:03:01.597Z,98929.50
2022-11-22T16:06:09.244Z,98939.16
2022-11-22T16:08:26.428Z,98933.09
2022-11-22T16:10:57.684Z,98944.53
2022-11-22T16:13:27.324Z,98946.28
2022-11-22T16:16:10.316Z,98943.72
2022-11-22T16:18:37.957Z,98941.97
2022-11-22T16:21:13.568Z,98938.47
2022-11-22T16:23:41.646Z,98941.09
2022-11-22T16:26:31.768Z,98939.38
2022-11-22T16:29:32.212Z,98948.13
2022-11-22T16:32:13.253Z,98941.09
2022-11-22T16:34:43.929Z,98953.38
2022-11-22T16:37:36.372Z,98950.75
2022-11-22T16:40:06.087Z,98947.28
2022-11-22T16:42:33.336Z,98953.41
2022-11-22T16:45:04.048Z,98948.19
2022-11-22T16:47:31.323Z,98941.16
2022-11-22T16:49:57.836Z,98945.56
2022-11-22T16:52:25.007Z,98945.50
2022-11-22T16:54:51.589Z,98943.78
2022-11-22T16:57:18.565Z,98940.25
2022-11-22T16:59:45.127Z,98950.75
2022-11-22T17:02:13.748Z,98949.03
2022-11-22T17:04:41.372Z,98949.91
2022-11-22T17:07:12.177Z,98943.78
2022-11-22T17:09:40.067Z,98943.78
2022-11-22T17:12:14.517Z,98947.28
2022-11-22T17:18:53.324Z,98950.72
2022-11-22T17:21:37.253Z,98934.94
2022-11-22T17:24:10.050Z,98935.78
2022-11-22T17:26:36.876Z,98933.13
2022-11-22T17:29:03.469Z,98942.72
2022-11-22T17:31:32.965Z,98940.94
2022-11-22T17:33:59.643Z,98933.03
2022-11-22T17:36:31.818Z,98939.13
2022-11-22T17:39:00.288Z,98943.44
2022-11-22T17:41:27.597Z,98942.50
2022-11-22T17:43:54.394Z,98946.84
2022-11-22T17:46:21.038Z,98950.28
2022-11-22T17:48:55.219Z,98955.47
2022-11-22T17:51:22.326Z,98954.56
2022-11-22T17:53:50.119Z,98953.69
2022-11-22T17:56:17.071Z,98960.69
2022-11-22T17:58:43.997Z,98954.56
2022-11-22T18:01:13.168Z,98958.06
2022-11-22T18:03:41.105Z,98955.44
2022-11-22T18:06:09.007Z,98962.41
2022-11-22T18:08:36.242Z,98951.94
2022-11-22T18:11:04.192Z,98958.00
2022-11-22T18:13:34.296Z,98957.13
2022-11-22T18:16:04.056Z,98959.72
2022-11-22T18:21:19.162Z,98961.44
2022-11-22T18:23:45.883Z,98967.59
2022-11-22T18:31:53.225Z,98962.59
2022-11-22T18:34:21.299Z,98962.66
2022-11-22T18:37:04.649Z,98962.69
2022-11-22T18:39:38.012Z,98959.19
2022-11-22T18:42:07.369Z,98966.16
2022-11-22T18:44:34.196Z,98967.84
2022-11-22T18:47:00.849Z,98963.47
2022-11-22T18:49:27.711Z,98964.28
2022-11-22T18:51:54.391Z,98972.97
2022-11-22T18:54:22.182Z,98970.34
2022-11-22T18:56:50.499Z,98979.94
2022-11-22T18:59:17.413Z,98986.03
2022-11-22T19:01:44.008Z,98985.19
2022-11-22T19:04:13.643Z,98987.75
2022-11-22T19:06:40.658Z,98986.00
2022-11-22T19:09:08.363Z,98983.38
2022-11-22T19:11:38.016Z,98978.94
2022-11-22T19:14:04.855Z,98992.00
2022-11-22T19:16:31.854Z,98985.03
2022-11-22T19:18:59.307Z,98992.06
2022-11-22T19:21:28.301Z,98992.06
2022-11-22T19:23:56.688Z,98994.72
2022-11-22T19:26:28.518Z,98995.66
2022-11-22T19:28:56.438Z,98979.97
2022-11-22T19:31:27.876Z,98995.75
2022-11-22T19:33:55.348Z,98989.69
2022-11-22T19:36:27.876Z,98983.63
2022-11-22T19:38:59.702Z,98995.00
2022-11-22T19:41:26.778Z,98984.53
2022-11-22T19:43:53.637Z,98988.09
2022-11-22T19:46:20.496Z,98988.97
2022-11-22T19:48:51.809Z,99004.72
2022-11-22T19:51:19.219Z,99003.84
2022-11-22T19:53:45.793Z,99006.47
2022-11-22T19:56:15.207Z,98997.72
2022-11-22T19:58:43.457Z,98991.56
2022-11-22T20:01:16.558Z,98988.94
2022-11-22T20:03:44.351Z,98986.28
2022-11-22T20:06:12.845Z,98984.53
2022-11-22T20:08:40.238Z,98980.19
2022-11-22T20:11:09.940Z,98985.41
2022-11-22T20:13:38.989Z,98988.94
2022-11-22T20:16:23.522Z,98992.41
2022-11-22T20:19:04.588Z,99001.16
2022-11-22T20:21:33.336Z,98992.41
2022-11-22T20:24:00.779Z,98993.28
2022-11-22T20:26:29.116Z,99002.03
2022-11-22T20:29:03.832Z,99001.19
2022-11-22T20:31:32.227Z,99005.56
2022-11-22T20:34:00.765Z,98995.00
2022-11-22T20:36:29.672Z,99001.13
2022-11-22T20:38:57.229Z,98998.47
2022-11-22T20:41:27.870Z,99002.81
2022-11-22T20:43:55.387Z,98999.34
2022-11-22T20:46:24.743Z,99008.09
2022-11-22T20:48:55.261Z,99002.88
2022-11-22T20:51:24.465Z,99014.19
2022-11-22T20:53:55.096Z,98997.56
2022-11-22T20:56:21.901Z,98996.66
2022-11-22T20:58:49.152Z,98999.28
2022-11-22T21:01:21.424Z,98993.13
2022-11-22T21:03:50.849Z,98997.50
2022-11-22T21:06:20.815Z,98992.22
2022-11-22T21:08:47.861Z,99007.00
2022-11-22T21:11:21.852Z,99005.16
2022-11-22T21:13:49.332Z,98991.91
2022-11-22T21:16:23.893Z,98999.66
2022-11-22T21:18:52.234Z,98993.41
2022-11-22T21:21:23.121Z,98999.44
2022-11-22T21:23:52.363Z,99004.59
2022-11-22T21:26:19.360Z,98994.03
2022-11-22T21:28:46.124Z,98997.47
2022-11-22T21:31:12.856Z,98994.78
2022-11-22T21:33:39.494Z,98995.59
2022-11-22T21:36:06.891Z,98995.53
2022-11-22T21:38:38.471Z,98995.47
2022-11-22T21:41:37.684Z,98998.91
2022-11-22T21:43:55.902Z,98998.00
2022-11-22T21:46:22.698Z,99005.81
2022-11-22T21:48:50.387Z,99004.03
2022-11-22T21:51:17.266Z,98998.78
2022-11-22T21:53:43.935Z,98997.91
2022-11-22T21:56:10.506Z,99005.84
2022-11-22T21:58:37.146Z,98999.81
2022-11-22T22:01:10.912Z,99002.53
2022-11-22T22:03:40.167Z,99005.22
2022-11-22T22:06:08.278Z,99007.06
2022-11-22T22:08:35.715Z,99003.66
2022-11-22T22:11:05.064Z,99010.66
2022-11-22T22:13:32.078Z,99003.72
2022-11-22T22:16:00.946Z,99003.69
2022-11-22T22:18:36.124Z,99005.31
2022-11-22T22:21:10.241Z,99007.88
2022-11-22T22:23:39.442Z,99007.78
2022-11-22T22:26:07.962Z,99005.06
2022-11-22T22:28:36.897Z,99003.31
2022-11-22T22:31:04.581Z,99015.44
2022-11-22T22:33:31.627Z,99016.28
2022-11-22T22:35:59.236Z,99015.38
2022-11-22T22:38:26.377Z,99017.97
2022-11-22T22:41:00.219Z,99027.56
2022-11-22T22:43:31.703Z,99025.75
2022-11-22T22:46:18.738Z,99025.72
2022-11-22T22:48:45.737Z,99025.69
2022-11-22T22:51:29.013Z,99029.13
2022-11-22T22:53:58.973Z,99025.59
2022-11-22T22:56:26.172Z,99023.81
2022-11-22T22:58:57.197Z,99030.78
2022-11-22T23:01:27.762Z,99026.41
2022-11-22T23:03:59.442Z,99029.00
2022-11-22T23:06:28.898Z,99022.03
2022-11-22T23:08:56.280Z,99020.25
2022-11-22T23:11:44.372Z,99025.50
2022-11-22T23:14:12.819Z,99016.72
2022-11-22T23:16:42.624Z,99028.06
2022-11-22T23:19:09.610Z,99027.16
2022-11-22T23:21:36.755Z,99031.50
2022-11-22T23:24:03.870Z,99039.34
2022-11-22T23:26:30.626Z,99038.53
2022-11-22T23:28:59.144Z,99035.16
2022-11-22T23:31:35.070Z,99038.00
2022-11-22T23:34:02.192Z,99040.75
2022-11-22T23:36:29.344Z,99047.03
2022-11-22T23:38:56.185Z,99047.16
2022-11-22T23:41:23.953Z,99052.56
2022-11-22T23:43:55.746Z,99050.09
2022-11-22T23:46:25.952Z,99053.69
2022-11-22T23:48:55.089Z,99054.69
2022-11-22T23:51:22.201Z,99050.41
2022-11-22T23:53:49.139Z,99053.97
2022-11-22T23:56:21.599Z,99060.19
2022-11-22T23:58:49.174Z,99048.00
